Pinehurst, Washington
Current Conditions -  °F | °C
As of 8:53 PM on Monday 20 Oct 2014 (Local Time) from KPAE Reporting Station
Broken Clouds Broken Clouds  
Wind Chill: 55°   Ceiling: 8000
Heat Index: 55°   Visibility: 10mi
Dew Point: 51°   Wind: 13mph
Humidity: 86%   Direction: 160°SSE
Pressure: 29.78"   Gusts: NA
Location:  47.9451°N, 122.226°W
Report Text: KPAE 210353Z AUTO 16011KT 10SM SCT055 BKN080 13/11 A2978 RMK AO2 RAE00 SLP082 P0000 T01280106
Loading
Personal Weather Stations






























Interactive Weather Map
Tropical Storm Tracking
New forecast layout! Learn more

10-Day Weather Forecast

Advertisements
Track Severe Weather on mobile